createdAt,value
2023-05-18T00:00:22.933Z,9.77
2023-05-18T00:05:28.584Z,9.69
2023-05-18T00:12:06.754Z,9.62
2023-05-18T00:13:53.115Z,9.58
2023-05-18T00:16:14.742Z,9.54
2023-05-18T00:18:04.632Z,9.54
2023-05-18T00:20:29.977Z,9.51
2023-05-18T00:26:54.676Z,9.39
2023-05-18T00:28:22.970Z,9.40
2023-05-18T00:31:02.816Z,9.36
2023-05-18T00:34:53.363Z,9.28
2023-05-18T00:37:16.877Z,9.28
2023-05-18T00:38:43.945Z,9.26
2023-05-18T00:40:53.624Z,9.25
2023-05-18T00:47:38.458Z,9.14
2023-05-18T00:55:57.085Z,9.13
2023-05-18T01:00:03.152Z,9.11
2023-05-18T01:01:38.682Z,9.10
2023-05-18T01:03:06.644Z,9.06
2023-05-18T01:08:41.784Z,8.99
2023-05-18T01:11:35.947Z,8.91
2023-05-18T01:15:34.573Z,8.87
2023-05-18T01:18:08.249Z,8.87
2023-05-18T01:20:07.724Z,8.84
2023-05-18T01:21:58.112Z,8.82
2023-05-18T01:30:04.406Z,8.81
2023-05-18T01:31:02.841Z,8.78
2023-05-18T01:32:02.767Z,8.73
2023-05-18T01:34:49.400Z,8.70
2023-05-18T01:40:48.455Z,8.69
2023-05-18T01:42:19.097Z,8.69
2023-05-18T01:45:38.769Z,8.66
2023-05-18T01:51:52.970Z,8.63
2023-05-18T01:53:20.446Z,8.61
2023-05-18T01:54:56.327Z,8.61
2023-05-18T01:56:29.291Z,8.55
2023-05-18T01:58:00.239Z,8.52
2023-05-18T01:59:36.849Z,8.49
2023-05-18T02:01:31.386Z,8.46
2023-05-18T02:03:04.402Z,8.49
2023-05-18T02:06:01.467Z,8.48
2023-05-18T02:10:04.128Z,8.44
2023-05-18T02:11:17.189Z,8.44
2023-05-18T02:14:10.364Z,8.44
2023-05-18T02:16:10.408Z,8.38
2023-05-18T02:19:07.411Z,8.41
2023-05-18T02:26:06.818Z,8.37
2023-05-18T02:27:58.429Z,8.37
2023-05-18T02:30:52.019Z,8.36
2023-05-18T02:33:12.303Z,8.34
2023-05-18T02:35:06.293Z,8.33
2023-05-18T02:37:56.229Z,8.30
2023-05-18T02:41:56.127Z,8.26
2023-05-18T02:48:48.855Z,8.20
2023-05-18T02:50:19.571Z,8.20
2023-05-18T02:54:25.959Z,8.16
2023-05-18T02:56:16.417Z,8.16
2023-05-18T02:59:54.870Z,8.16
2023-05-18T03:03:28.401Z,8.10
2023-05-18T03:05:50.918Z,8.10
2023-05-18T03:10:13.241Z,8.03
2023-05-18T03:12:01.020Z,8.05
2023-05-18T03:15:55.291Z,8.00
2023-05-18T03:18:34.796Z,8.01
2023-05-18T03:24:40.922Z,7.93
2023-05-18T03:32:19.570Z,7.87
2023-05-18T03:34:21.490Z,7.85
2023-05-18T03:37:58.180Z,7.91
2023-05-18T03:39:29.193Z,7.91
2023-05-18T03:41:50.465Z,7.90
2023-05-18T03:43:20.265Z,7.88
2023-05-18T03:46:22.236Z,7.80
2023-05-18T03:50:52.897Z,7.83
2023-05-18T03:56:13.845Z,7.80
2023-05-18T03:57:46.725Z,7.83
2023-05-18T03:59:46.246Z,7.83
2023-05-18T04:01:36.721Z,7.82
2023-05-18T04:06:26.844Z,7.83
2023-05-18T04:08:29.781Z,7.83
2023-05-18T04:14:16.006Z,7.90
2023-05-18T04:16:16.574Z,7.91
2023-05-18T04:19:30.276Z,7.94
2023-05-18T04:22:21.468Z,7.97
2023-05-18T04:24:54.646Z,7.97
2023-05-18T04:31:44.210Z,8.05
2023-05-18T04:33:14.124Z,8.09
2023-05-18T04:44:05.453Z,8.20
2023-05-18T04:44:42.420Z,8.26
2023-05-18T04:45:42.458Z,8.30
2023-05-18T04:51:03.133Z,8.37
2023-05-18T04:52:33.756Z,8.38
2023-05-18T04:55:21.731Z,8.44
2023-05-18T04:56:54.584Z,8.46
2023-05-18T04:59:13.618Z,8.53
2023-05-18T05:00:48.707Z,8.60
2023-05-18T05:02:19.631Z,8.63
2023-05-18T05:06:19.196Z,8.70
2023-05-18T05:07:20.961Z,8.71
2023-05-18T05:08:19.168Z,8.74
2023-05-18T05:13:12.720Z,8.81
2023-05-18T05:15:16.205Z,8.87
2023-05-18T05:17:40.752Z,8.94
2023-05-18T05:19:50.246Z,9.00
2023-05-18T05:23:21.147Z,9.02
2023-05-18T05:24:41.477Z,9.08
2023-05-18T05:25:41.443Z,9.13
2023-05-18T05:27:22.763Z,9.18
2023-05-18T05:31:59.391Z,9.31
2023-05-18T05:33:49.616Z,9.37
2023-05-18T05:35:51.474Z,9.43
2023-05-18T05:37:22.659Z,9.44
2023-05-18T05:40:53.928Z,9.56
2023-05-18T05:43:40.738Z,9.59
2023-05-18T05:46:10.546Z,9.72
2023-05-18T05:48:42.791Z,9.82
2023-05-18T05:54:19.168Z,9.94
2023-05-18T05:56:17.418Z,9.95
2023-05-18T05:59:28.036Z,10.02
2023-05-18T06:02:20.781Z,10.16
2023-05-18T06:03:52.676Z,10.26
2023-05-18T06:05:21.117Z,10.28
2023-05-18T06:06:54.128Z,10.28
2023-05-18T06:10:19.453Z,10.41
2023-05-18T06:12:40.426Z,10.48
2023-05-18T06:20:44.889Z,10.76
2023-05-18T06:22:34.625Z,10.79
2023-05-18T06:25:00.484Z,10.86
2023-05-18T06:36:36.213Z,11.02
2023-05-18T06:38:04.674Z,11.07
2023-05-18T06:42:01.401Z,11.14
2023-05-18T06:44:55.145Z,11.17
2023-05-18T06:46:54.828Z,11.23
2023-05-18T06:48:28.797Z,11.23
2023-05-18T06:50:27.647Z,11.04
2023-05-18T06:53:48.169Z,10.92
2023-05-18T06:56:16.529Z,10.92
2023-05-18T06:58:41.274Z,10.90
2023-05-18T07:01:38.606Z,10.94
2023-05-18T07:04:07.588Z,10.94
2023-05-18T07:07:07.576Z,10.84
2023-05-18T07:10:58.670Z,11.07
2023-05-18T07:22:01.406Z,11.48
2023-05-18T07:25:21.899Z,11.60
2023-05-18T07:28:30.353Z,11.70
2023-05-18T07:31:58.305Z,11.73
2023-05-18T07:37:22.795Z,11.87
2023-05-18T07:40:39.334Z,12.09
2023-05-18T07:44:30.130Z,12.32
2023-05-18T07:46:01.013Z,12.42
2023-05-18T07:48:43.214Z,12.42
2023-05-18T07:54:03.113Z,12.57
2023-05-18T07:57:36.759Z,12.68
2023-05-18T08:01:16.512Z,12.67
2023-05-18T08:01:55.558Z,12.73
2023-05-18T08:02:56.463Z,12.78
2023-05-18T08:04:28.448Z,12.79
2023-05-18T08:09:20.810Z,12.79
2023-05-18T08:14:55.578Z,12.80
2023-05-18T08:18:27.568Z,12.62
2023-05-18T08:20:32.961Z,12.73
2023-05-18T08:23:38.298Z,12.91
2023-05-18T08:25:08.644Z,12.91
2023-05-18T08:30:10.158Z,13.03
2023-05-18T08:32:10.232Z,13.08
2023-05-18T08:36:36.312Z,13.37
2023-05-18T08:38:37.673Z,13.28
2023-05-18T08:43:48.378Z,13.28
2023-05-18T08:48:39.971Z,13.53
2023-05-18T08:51:12.954Z,13.56
2023-05-18T08:52:45.621Z,13.60
2023-05-18T08:54:49.664Z,13.52
2023-05-18T08:57:51.835Z,13.47
2023-05-18T08:59:00.629Z,13.50
2023-05-18T09:01:31.250Z,13.60
2023-05-18T09:03:29.342Z,13.81
2023-05-18T09:05:03.305Z,13.95
2023-05-18T09:08:12.324Z,13.99
2023-05-18T09:12:36.709Z,14.47
2023-05-18T09:17:00.978Z,14.96
2023-05-18T09:18:28.644Z,14.73
2023-05-18T09:21:17.706Z,14.88
2023-05-18T09:24:16.168Z,14.81
2023-05-18T09:27:35.996Z,14.60
2023-05-18T09:30:08.985Z,14.60
2023-05-18T09:33:43.009Z,14.84
2023-05-18T09:37:19.812Z,14.55
2023-05-18T09:38:38.896Z,14.51
2023-05-18T09:39:17.856Z,14.48
2023-05-18T09:41:41.211Z,14.40
2023-05-18T09:43:10.982Z,14.29
2023-05-18T09:46:45.980Z,14.36
2023-05-18T09:50:22.853Z,14.44
2023-05-18T09:53:39.738Z,14.44
2023-05-18T09:57:09.391Z,14.32
2023-05-18T09:59:28.351Z,14.60
2023-05-18T10:04:39.417Z,15.11
2023-05-18T10:06:28.221Z,15.21
2023-05-18T10:08:58.080Z,15.46
2023-05-18T10:17:43.678Z,15.94
2023-05-18T10:21:52.565Z,16.13
2023-05-18T10:23:28.040Z,16.31
2023-05-18T10:28:25.713Z,16.32
2023-05-18T10:30:14.163Z,16.43
2023-05-18T10:33:53.463Z,16.66
2023-05-18T10:35:22.237Z,16.84
2023-05-18T10:37:21.246Z,16.89
2023-05-18T10:39:25.419Z,17.01
2023-05-18T10:41:13.456Z,17.29
2023-05-18T10:43:35.138Z,17.67
2023-05-18T10:46:30.433Z,17.59
2023-05-18T10:50:52.522Z,17.79
2023-05-18T10:55:56.923Z,18.28
2023-05-18T10:57:29.087Z,18.50
2023-05-18T10:59:26.464Z,18.62
2023-05-18T11:06:03.683Z,18.28
2023-05-18T11:07:33.180Z,18.45
2023-05-18T11:14:10.791Z,19.12
2023-05-18T11:16:48.328Z,19.34
2023-05-18T11:19:49.694Z,19.44
2023-05-18T11:21:16.615Z,19.55
2023-05-18T11:23:38.021Z,19.77
2023-05-18T11:27:54.661Z,19.66
2023-05-18T11:29:24.591Z,19.52
2023-05-18T11:31:43.179Z,19.69
2023-05-18T11:33:12.782Z,19.89
2023-05-18T11:36:08.920Z,20.22
2023-05-18T11:46:03.205Z,20.31
2023-05-18T11:50:01.994Z,20.21
2023-05-18T11:51:33.807Z,20.24
2023-05-18T11:53:21.779Z,20.65
2023-05-18T11:57:19.994Z,21.17
2023-05-18T11:58:51.112Z,21.48
2023-05-18T12:00:20.197Z,21.80
2023-05-18T12:04:01.526Z,21.58
2023-05-18T12:05:31.861Z,21.72
2023-05-18T12:07:50.014Z,21.80
2023-05-18T12:09:18.945Z,21.96
2023-05-18T12:11:17.256Z,22.15
2023-05-18T12:12:48.935Z,22.20
2023-05-18T12:16:12.859Z,22.60
2023-05-18T12:18:54.540Z,22.57
2023-05-18T12:22:29.257Z,22.80
2023-05-18T12:24:51.222Z,23.06
2023-05-18T12:26:28.305Z,23.15
2023-05-18T12:30:11.417Z,22.96
2023-05-18T12:31:39.810Z,22.87
2023-05-18T12:35:09.729Z,22.38
2023-05-18T12:36:39.688Z,22.33
2023-05-18T12:40:45.099Z,22.11
2023-05-18T12:42:12.773Z,22.14
2023-05-18T12:44:12.007Z,22.18
2023-05-18T12:46:31.360Z,22.26
2023-05-18T12:48:54.309Z,22.78
2023-05-18T12:51:43.229Z,22.94
2023-05-18T12:55:20.925Z,22.66
2023-05-18T12:56:52.767Z,22.85
2023-05-18T12:59:09.571Z,22.83
2023-05-18T13:00:40.157Z,22.83
2023-05-18T13:02:11.849Z,22.80
2023-05-18T13:04:46.827Z,22.68
2023-05-18T13:06:17.095Z,22.65
2023-05-18T13:15:48.293Z,22.30
2023-05-18T13:18:17.532Z,22.48
2023-05-18T13:20:38.924Z,23.03
2023-05-18T13:22:40.308Z,23.06
2023-05-18T13:24:12.487Z,23.18
2023-05-18T13:26:34.885Z,22.91
2023-05-18T13:28:02.802Z,22.54
2023-05-18T13:30:26.163Z,22.35
2023-05-18T13:33:18.669Z,22.65
2023-05-18T13:49:20.510Z,22.72
2023-05-18T13:53:48.602Z,23.00
2023-05-18T13:55:49.425Z,23.06
2023-05-18T14:00:21.443Z,22.91
2023-05-18T14:02:28.414Z,22.72
2023-05-18T14:03:57.939Z,22.36
2023-05-18T14:06:03.332Z,22.33
2023-05-18T14:07:35.201Z,21.85
2023-05-18T14:13:33.608Z,21.57
2023-05-18T14:15:07.465Z,21.66
2023-05-18T14:16:39.887Z,21.55
2023-05-18T14:19:38.125Z,21.82
2023-05-18T14:22:08.989Z,21.80
2023-05-18T14:23:42.371Z,21.92
2023-05-18T14:28:34.111Z,21.91
2023-05-18T14:33:05.692Z,21.72
2023-05-18T14:35:56.310Z,21.70
2023-05-18T14:37:24.669Z,21.70
2023-05-18T14:38:54.655Z,21.72
2023-05-18T14:40:53.312Z,21.80
2023-05-18T14:42:23.754Z,21.89
2023-05-18T14:43:23.409Z,21.80
2023-05-18T14:44:24.242Z,21.77
2023-05-18T14:45:23.403Z,21.83
2023-05-18T14:48:02.652Z,21.95
2023-05-18T14:54:11.208Z,22.25
2023-05-18T14:57:19.928Z,22.25
2023-05-18T15:00:25.385Z,22.07
2023-05-18T15:02:14.829Z,21.91
2023-05-18T15:03:46.773Z,21.64
2023-05-18T15:06:12.974Z,21.45
2023-05-18T15:07:42.970Z,21.51
2023-05-18T15:10:01.507Z,21.70
2023-05-18T15:12:31.952Z,21.75
2023-05-18T15:14:00.817Z,21.51
2023-05-18T15:15:29.972Z,21.39
2023-05-18T15:17:57.052Z,21.36
2023-05-18T15:20:56.140Z,21.51
2023-05-18T15:24:14.665Z,21.20
2023-05-18T15:28:01.662Z,20.99
2023-05-18T15:30:36.433Z,20.85
2023-05-18T15:32:11.508Z,20.85
2023-05-18T15:35:06.937Z,20.66
2023-05-18T15:38:38.738Z,20.48
2023-05-18T15:42:32.684Z,20.40
2023-05-18T15:44:04.513Z,20.44
2023-05-18T15:45:35.384Z,20.62
2023-05-18T15:48:41.438Z,20.74
2023-05-18T15:51:43.274Z,20.55
2023-05-18T15:53:12.285Z,20.50
2023-05-18T15:57:40.127Z,20.47
2023-05-18T15:59:27.848Z,20.43
2023-05-18T16:01:58.005Z,20.34
2023-05-18T16:03:27.745Z,20.47
2023-05-18T16:04:55.975Z,20.40
2023-05-18T16:07:30.396Z,20.39
2023-05-18T16:11:22.470Z,20.31
2023-05-18T16:13:20.910Z,20.41
2023-05-18T16:16:43.467Z,20.44
2023-05-18T16:21:19.184Z,20.40
2023-05-18T16:26:33.243Z,20.09
2023-05-18T16:28:44.638Z,20.02
2023-05-18T16:30:11.689Z,20.09
2023-05-18T16:35:23.526Z,20.04
2023-05-18T16:37:24.490Z,19.92
2023-05-18T16:40:18.338Z,19.89
2023-05-18T16:41:47.683Z,19.70
2023-05-18T16:44:38.453Z,19.66
2023-05-18T16:46:09.796Z,19.74
2023-05-18T16:49:39.905Z,19.88
2023-05-18T16:50:39.705Z,19.77
2023-05-18T16:51:39.749Z,19.77
2023-05-18T16:53:10.241Z,19.79
2023-05-18T17:02:01.881Z,19.64
2023-05-18T17:06:52.936Z,19.96
2023-05-18T17:09:04.887Z,19.86
2023-05-18T17:10:03.235Z,19.77
2023-05-18T17:11:03.205Z,19.79
2023-05-18T17:13:32.875Z,19.76
2023-05-18T17:16:02.994Z,19.73
2023-05-18T17:18:00.856Z,19.76
2023-05-18T17:19:58.615Z,19.71
2023-05-18T17:22:31.217Z,19.62
2023-05-18T17:25:06.082Z,19.55
2023-05-18T17:27:01.984Z,19.56
2023-05-18T17:29:34.748Z,19.56
2023-05-18T17:36:03.608Z,19.21
2023-05-18T17:37:35.594Z,19.12
2023-05-18T17:40:37.231Z,19.04
2023-05-18T17:42:38.079Z,19.02
2023-05-18T17:45:05.045Z,18.93
2023-05-18T17:46:04.952Z,18.93
2023-05-18T17:47:05.020Z,18.93
2023-05-18T17:48:05.004Z,18.98
2023-05-18T17:49:33.925Z,18.77
2023-05-18T17:51:02.902Z,18.80
2023-05-18T17:52:31.786Z,18.80
2023-05-18T17:54:54.094Z,18.73
2023-05-18T17:57:27.336Z,18.63
2023-05-18T18:00:14.632Z,18.62
2023-05-18T18:03:43.404Z,18.47
2023-05-18T18:05:44.409Z,18.35
2023-05-18T18:07:11.247Z,18.28
2023-05-18T18:10:13.321Z,18.08
2023-05-18T18:13:01.197Z,18.16
2023-05-18T18:19:23.638Z,18.18
2023-05-18T18:23:29.303Z,18.19
2023-05-18T18:27:00.849Z,18.16
2023-05-18T18:28:29.406Z,18.10
2023-05-18T18:30:27.836Z,18.01
2023-05-18T18:31:56.721Z,18.00
2023-05-18T18:33:25.895Z,17.90
2023-05-18T18:35:29.671Z,17.86
2023-05-18T18:37:15.553Z,17.82
2023-05-18T18:38:44.384Z,17.82
2023-05-18T18:46:07.366Z,17.64
2023-05-18T18:49:46.336Z,17.54
2023-05-18T18:51:47.491Z,17.51
2023-05-18T18:54:10.881Z,17.46
2023-05-18T18:55:43.220Z,17.46
2023-05-18T18:57:41.290Z,17.44
2023-05-18T19:03:24.072Z,17.36
2023-05-18T19:06:20.874Z,17.23
2023-05-18T19:09:20.984Z,17.15
2023-05-18T19:10:20.909Z,17.12
2023-05-18T19:11:20.888Z,17.09
2023-05-18T19:12:20.934Z,17.09
2023-05-18T19:18:10.047Z,16.99
2023-05-18T19:19:38.588Z,16.97
2023-05-18T19:22:05.478Z,16.83
2023-05-18T19:23:34.474Z,16.81
2023-05-18T19:25:32.596Z,16.79
2023-05-18T19:27:33.687Z,16.71
2023-05-18T19:30:02.538Z,16.66
2023-05-18T19:32:01.435Z,16.66
2023-05-18T19:33:30.308Z,16.65
2023-05-18T19:35:31.544Z,16.61
2023-05-18T19:38:56.617Z,16.51
2023-05-18T19:40:28.746Z,16.43
2023-05-18T19:43:58.346Z,16.38
2023-05-18T19:45:59.686Z,16.35
2023-05-18T19:49:23.960Z,16.26
2023-05-18T19:52:45.948Z,16.20
2023-05-18T20:03:06.687Z,16.00
2023-05-18T20:09:38.714Z,15.83
2023-05-18T20:12:06.459Z,15.75
2023-05-18T20:14:39.418Z,15.65
2023-05-18T20:17:51.861Z,15.61
2023-05-18T20:19:20.699Z,15.58
2023-05-18T20:20:49.740Z,15.54
2023-05-18T20:23:48.371Z,15.51
2023-05-18T20:25:46.134Z,15.49
2023-05-18T20:28:08.013Z,15.44
2023-05-18T20:34:17.924Z,15.36
2023-05-18T20:36:50.917Z,15.28
2023-05-18T20:38:48.991Z,15.27
2023-05-18T20:40:20.889Z,15.24
2023-05-18T20:41:52.766Z,15.21
2023-05-18T20:44:46.273Z,15.10
2023-05-18T20:46:15.204Z,15.10
2023-05-18T20:49:20.223Z,15.02
2023-05-18T20:51:50.448Z,14.97
2023-05-18T20:53:51.495Z,14.91
2023-05-18T20:56:43.806Z,14.84
2023-05-18T21:13:05.642Z,14.50
2023-05-18T21:14:34.749Z,14.50
2023-05-18T21:16:06.815Z,14.50
2023-05-18T21:18:32.264Z,14.47
2023-05-18T21:22:02.566Z,14.40
2023-05-18T21:24:58.913Z,14.33
2023-05-18T21:26:57.009Z,14.30
2023-05-18T21:28:28.835Z,14.33
2023-05-18T21:37:08.866Z,14.12
2023-05-18T21:43:21.395Z,14.00
2023-05-18T21:44:50.328Z,13.93
2023-05-18T21:46:19.255Z,13.87
2023-05-18T21:48:49.670Z,13.71
2023-05-18T21:50:21.505Z,13.70
2023-05-18T21:52:22.830Z,13.67
2023-05-18T21:53:51.684Z,13.62
2023-05-18T21:55:49.355Z,13.60
2023-05-18T21:57:18.937Z,13.59
2023-05-18T21:59:16.805Z,13.50
2023-05-18T22:00:49.015Z,13.44
2023-05-18T22:02:17.887Z,13.41
2023-05-18T22:03:48.720Z,13.41
2023-05-18T22:05:40.293Z,13.37
2023-05-18T22:07:09.263Z,13.38
2023-05-18T22:12:54.719Z,13.18
2023-05-18T22:14:23.638Z,13.15
2023-05-18T22:15:55.875Z,13.16
2023-05-18T22:18:26.025Z,13.16
2023-05-18T22:19:55.348Z,13.13
2023-05-18T22:22:54.490Z,13.09
2023-05-18T22:35:06.506Z,12.91
2023-05-18T22:37:33.405Z,12.91
2023-05-18T22:41:36.742Z,12.86
2023-05-18T22:43:55.451Z,12.83
2023-05-18T22:45:55.177Z,12.83
2023-05-18T22:49:56.331Z,12.73
2023-05-18T23:01:53.440Z,12.53
2023-05-18T23:04:55.756Z,12.54
2023-05-18T23:06:53.867Z,12.53
2023-05-18T23:10:25.178Z,12.43
2023-05-18T23:11:54.721Z,12.43
2023-05-18T23:21:38.847Z,12.29
2023-05-18T23:23:10.672Z,12.29
2023-05-18T23:26:41.341Z,12.29
2023-05-18T23:28:13.480Z,12.25
2023-05-18T23:30:17.865Z,12.24
2023-05-18T23:32:14.115Z,12.17
2023-05-18T23:33:42.978Z,12.15
2023-05-18T23:35:14.839Z,12.13
2023-05-18T23:41:05.950Z,12.07
2023-05-18T23:43:36.072Z,12.07
2023-05-18T23:45:34.430Z,12.04
2023-05-18T23:49:42.087Z,11.95
2023-05-18T23:52:39.206Z,11.94
2023-05-18T23:56:11.492Z,11.87
